WetterOnline ( http://www.wetteronline.de )

Wetter aktuell Sylt

Aktuelles Wetter: List/Sylt (29m)

6-stündlich | Neueste Meldungen
Ortszeit Temperatur Wetter
Mi, 26.09. 8:00 14.8° C bedeckt
Mi, 26.09. 2:00 13.8° C wolkig
Di, 25.09. 20:00 12.3° C bewölkt
Di, 25.09. 14:00 13.8° C wolkig
Di, 25.09. 8:00 10.4° C leicht bewölkt
Di, 25.09. 2:00 9.4° C leichter Regen
Mo, 24.09. 20:00 9.4° C bewölkt
Mo, 24.09. 14:00 11.8° C leichter Regen
Ortszeit Temperatur Wetter
Mi, 26.09. 13:00 15.8° C bedeckt
Mi, 26.09. 12:50 15.8° C bedeckt
Mi, 26.09. 12:40 15.8° C bedeckt
Mi, 26.09. 12:30 16.3° C -
Mi, 26.09. 12:20 16.3° C -
Mi, 26.09. 12:10 16.9° C -
Mi, 26.09. 12:00 16.3° C bedeckt
Mi, 26.09. 11:30 16.3° C bewölkt
Mi, 26.09. 11:00 16.0° C bewölkt
Mi, 26.09. 10:30 15.6° C wolkig
Mi, 26.09. 10:00 15.4° C bedeckt
Ortszeit Relative Feuchte Sichtweite
Mi, 26.09. 8:00 75% 27 km
Mi, 26.09. 2:00 76% 40 km
Di, 25.09. 20:00 68% 55 km
Di, 25.09. 14:00 62% 17 km
Di, 25.09. 8:00 65% 55 km
Di, 25.09. 2:00 73% 16 km
Mo, 24.09. 20:00 74% 27 km
Mo, 24.09. 14:00 72% 9 km
Ortszeit Relative Feuchte Sichtweite
Mi, 26.09. 13:00 72% 10 km
Mi, 26.09. 12:50 72% -
Mi, 26.09. 12:40 72% -
Mi, 26.09. 12:30 69% 3.9 km
Mi, 26.09. 12:20 69% -
Mi, 26.09. 12:10 67% -
Mi, 26.09. 12:00 69% 5.0 km
Mi, 26.09. 11:30 69% 4.9 km
Mi, 26.09. 11:00 68% 5.0 km
Mi, 26.09. 10:30 71% 4.7 km
Mi, 26.09. 10:00 71% 12 km
Ortszeit Niederschlagsmenge Niederschlagsart
Mi, 26.09. 8:00 0.1 l/m2 in 12 Std. Regen
Mi, 26.09. 2:00 0.1 l/m2 in 6 Std. Regen
Di, 25.09. 20:00 0.1 l/m2 in 12 Std. Regen
Di, 25.09. 14:00 0.0 l/m2 in 6 Std. -
Di, 25.09. 8:00 0.1 l/m2 in 12 Std. Regen
Di, 25.09. 2:00 0.1 l/m2 in 6 Std. Regen
Mo, 24.09. 20:00 7 l/m2 in 12 Std. Regen
Mo, 24.09. 14:00 6 l/m2 in 6 Std. Regenschauer
Ortszeit Niederschlagsmenge Niederschlagsart
Mi, 26.09. 13:00 0.0 l/m2 in 1 Std. -
Mi, 26.09. 12:50 keine Meldung -
Mi, 26.09. 12:40 keine Meldung -
Mi, 26.09. 12:30 0.0 l/m2 in 1 Std. -
Mi, 26.09. 12:20 keine Meldung -
Mi, 26.09. 12:10 keine Meldung -
Mi, 26.09. 12:00 0.0 l/m2 in 1 Std. -
Mi, 26.09. 11:30 0.0 l/m2 in 1 Std. -
Mi, 26.09. 11:00 0.0 l/m2 in 1 Std. -
Mi, 26.09. 10:30 0.0 l/m2 in 1 Std. -
Mi, 26.09. 10:00 0.0 l/m2 in 1 Std. -
Ortszeit Stärke Spitze Richtung
km/h Bft. km/h Grad Sektor
Mi, 26.09. 8:00 41 6 67 230° SW
Mi, 26.09. 2:00 37 5 56 220° SW
Di, 25.09. 20:00 20 4 37 240° SW
Di, 25.09. 14:00 22 4 32 270° W
Di, 25.09. 8:00 18 3 47 320° NW
Di, 25.09. 2:00 25 4 68 350° N
Mo, 24.09. 20:00 47 6 79 330° NW
Mo, 24.09. 14:00 31 5 87 340° N
Ortszeit Stärke Spitze Richtung
km/h Bft. km/h Grad Sektor
Mi, 26.09. 13:00 48 6 76 250° W
Mi, 26.09. 12:50 48 6 - 250° W
Mi, 26.09. 12:40 48 6 - 240° SW
Mi, 26.09. 12:30 47 6 72 240° SW
Mi, 26.09. 12:20 47 6 - 240° SW
Mi, 26.09. 12:10 48 6 - 230° SW
Mi, 26.09. 12:00 50 7 76 230° SW
Mi, 26.09. 11:30 47 6 68 240° SW
Mi, 26.09. 11:00 47 6 72 240° SW
Mi, 26.09. 10:30 47 6 72 230° SW
Mi, 26.09. 10:00 50 6 74 230° SW
Ortszeit Untergrenze Bedeckung Gattung
total tief tief mittel hoch
Mi, 26.09. 8:00 750 m 8/8 8/8 - - -
Mi, 26.09. 2:00 990 m 8/8 1/8 - - -
Di, 25.09. 20:00 1110 m 8/8 4/8 - - -
Di, 25.09. 14:00 1500 m 8/8 8/8 - - -
Di, 25.09. 8:00 6000 m 3/8 4/8 - - -
Di, 25.09. 2:00 1230 m 7/8 7/8 - - -
Mo, 24.09. 20:00 1170 m 7/8 7/8 - - -
Mo, 24.09. 14:00 1410 m 4/8 3/8 - - -
Ortszeit Bedeckungsgrad in Achtel und Wolkenuntergrenze
Mi, 26.09. 13:00 8(750m)
Mi, 26.09. 12:50 8(750m)
Mi, 26.09. 12:40 8(780m)
Mi, 26.09. 12:30 -
Mi, 26.09. 12:20 -
Mi, 26.09. 12:10 -
Mi, 26.09. 12:00 7(840m) 7(1020m) 8(1800m)
Mi, 26.09. 11:30 7(840m) 7(1020m) 8(1800m)
Mi, 26.09. 11:00 7(930m) 7(1140m) 7(12000m)
Mi, 26.09. 10:30 2(1440m) 6(9000m) 7(12000m)
Mi, 26.09. 10:00 1(690m) 8(1350m)
Ortszeit Luftdruck NN (hPa) Tendenz (hPa in 3 Std.)
Mi, 26.09. 8:00 1025 - 2,9
Mi, 26.09. 2:00 1030 - 3,0
Di, 25.09. 20:00 1035 - 1,3
Di, 25.09. 14:00 1037 + 0,1
Di, 25.09. 8:00 1035 + 0,7
Di, 25.09. 2:00 1033 + 1,7
Mo, 24.09. 20:00 1029 + 1,5
Mo, 24.09. 14:00 1027 + 2,7
Ortszeit Luftdruck NN (hPa) Tendenz (hPa in 3 Std.)
Mi, 26.09. 13:00 1024 - 0,7
Mi, 26.09. 12:50 1024 keine Meldung
Mi, 26.09. 12:40 1024 keine Meldung
Mi, 26.09. 12:30 1024 - 1,1
Mi, 26.09. 12:20 1024 keine Meldung
Mi, 26.09. 12:10 1023 keine Meldung
Mi, 26.09. 12:00 1024 - 1,2
Mi, 26.09. 11:30 1024 - 0,8
Mi, 26.09. 11:00 1024 - 0,9
Mi, 26.09. 10:30 1024 - 1,5
Mi, 26.09. 10:00 1024 - 1,8
Ortszeit Schneehöhe (cm)
Mi, 26.09. 8:00 0
Mi, 26.09. 2:00 0
Di, 25.09. 20:00 0
Di, 25.09. 14:00 0
Di, 25.09. 8:00 0
Di, 25.09. 2:00 0
Mo, 24.09. 20:00 0
Mo, 24.09. 14:00 0
Ortszeit Schneehöhe (cm)
Mi, 26.09. 13:00 0
Mi, 26.09. 12:50 0
Mi, 26.09. 12:40 0
Mi, 26.09. 12:30 0
Mi, 26.09. 12:20 0
Mi, 26.09. 12:10 0
Mi, 26.09. 12:00 0
Mi, 26.09. 11:30 0
Mi, 26.09. 11:00 0
Mi, 26.09. 10:30 0
Mi, 26.09. 10:00 0
Link zu dieser Seite / Seite empfehlen

Das Wetter in ...